createdAt,value
2018-05-06T00:00:15.448Z,72.60
2018-05-06T00:02:47.804Z,72.70
2018-05-06T00:05:22.101Z,72.80
2018-05-06T00:07:53.157Z,73.00
2018-05-06T00:10:24.624Z,72.90
2018-05-06T00:12:58.124Z,73.00
2018-05-06T00:15:36.585Z,73.00
2018-05-06T00:18:11.679Z,72.90
2018-05-06T00:20:45.711Z,73.00
2018-05-06T00:23:22.071Z,73.00
2018-05-06T00:25:51.367Z,73.10
2018-05-06T00:28:19.891Z,73.30
2018-05-06T00:30:59.472Z,73.40
2018-05-06T00:33:41.811Z,73.50
2018-05-06T00:36:13.778Z,73.70
2018-05-06T00:38:45.008Z,73.70
2018-05-06T00:41:14.032Z,73.80
2018-05-06T00:43:45.743Z,73.70
2018-05-06T00:46:15.524Z,73.90
2018-05-06T00:48:45.273Z,73.90
2018-05-06T00:51:16.283Z,74.50
2018-05-06T00:53:46.479Z,74.10
2018-05-06T00:56:17.038Z,74.20
2018-05-06T00:58:47.184Z,74.30
2018-05-06T01:01:18.003Z,74.30
2018-05-06T01:03:49.368Z,74.30
2018-05-06T01:06:19.624Z,74.30
2018-05-06T01:08:49.761Z,74.30
2018-05-06T01:11:20.493Z,74.50
2018-05-06T01:13:52.029Z,74.40
2018-05-06T01:16:22.728Z,74.40
2018-05-06T01:18:54.872Z,74.50
2018-05-06T01:21:24.024Z,74.60
2018-05-06T01:24:03.549Z,74.60
2018-05-06T01:26:44.921Z,74.50
2018-05-06T01:29:16.076Z,74.40
2018-05-06T01:31:44.449Z,74.30
2018-05-06T01:34:12.852Z,74.40
2018-05-06T01:36:41.317Z,74.40
2018-05-06T01:39:09.729Z,74.30
2018-05-06T01:41:38.120Z,74.30
2018-05-06T01:44:07.265Z,74.40
2018-05-06T01:46:35.844Z,74.40
2018-05-06T01:49:04.220Z,74.40
2018-05-06T01:51:32.604Z,74.40
2018-05-06T01:54:01.009Z,74.50
2018-05-06T01:56:29.388Z,74.70
2018-05-06T01:58:57.797Z,74.80
2018-05-06T02:01:26.952Z,74.80
2018-05-06T02:03:55.516Z,74.70
2018-05-06T02:06:23.894Z,75.00
2018-05-06T02:08:52.273Z,75.20
2018-05-06T02:11:20.675Z,75.20
2018-05-06T02:13:49.134Z,75.30
2018-05-06T02:16:17.549Z,75.20
2018-05-06T02:18:45.928Z,75.50
2018-05-06T02:21:14.349Z,75.70
2018-05-06T02:23:42.720Z,75.70
2018-05-06T02:26:11.104Z,75.90
2018-05-06T02:28:39.561Z,75.70
2018-05-06T02:31:08.700Z,75.70
2018-05-06T02:33:37.097Z,75.60
2018-05-06T02:36:05.485Z,75.60
2018-05-06T02:38:34.042Z,75.60
2018-05-06T02:41:02.418Z,75.40
2018-05-06T02:43:30.804Z,75.30
2018-05-06T02:45:59.213Z,75.50
2018-05-06T02:48:27.590Z,75.50
2018-05-06T02:50:56.001Z,75.50
2018-05-06T02:53:25.149Z,75.40
2018-05-06T02:55:53.525Z,75.30
2018-05-06T02:58:21.928Z,75.20
2018-05-06T03:00:50.305Z,75.10
2018-05-06T03:03:18.704Z,75.20
2018-05-06T03:05:47.857Z,75.20
2018-05-06T03:08:17.358Z,75.10
2018-05-06T03:10:45.749Z,75.20
2018-05-06T03:13:14.122Z,75.10
2018-05-06T03:15:42.522Z,75.30
2018-05-06T03:18:10.900Z,75.20
2018-05-06T03:20:39.300Z,74.90
2018-05-06T03:23:08.445Z,74.90
2018-05-06T03:25:37.027Z,75.60
2018-05-06T03:28:05.407Z,74.70
2018-05-06T03:30:33.788Z,74.60
2018-05-06T03:33:02.191Z,74.60
2018-05-06T03:35:30.574Z,74.30
2018-05-06T03:37:58.976Z,74.30
2018-05-06T03:40:28.118Z,74.20
2018-05-06T03:42:56.689Z,74.20
2018-05-06T03:45:25.064Z,74.30
2018-05-06T03:47:53.441Z,74.30
2018-05-06T03:50:21.848Z,74.50
2018-05-06T03:52:50.227Z,74.40
2018-05-06T03:55:18.615Z,74.40
2018-05-06T03:58:04.773Z,74.40
2018-05-06T04:00:49.932Z,74.40
2018-05-06T04:03:18.304Z,74.40
2018-05-06T04:05:47.939Z,74.30
2018-05-06T04:08:16.316Z,74.30
2018-05-06T04:10:44.688Z,74.40
2018-05-06T04:13:13.092Z,74.40
2018-05-06T04:15:41.468Z,74.40
2018-05-06T04:18:09.874Z,74.20
2018-05-06T04:20:38.251Z,74.00
2018-05-06T04:23:06.994Z,73.60
2018-05-06T04:25:35.373Z,73.50
2018-05-06T04:28:03.744Z,73.20
2018-05-06T04:30:32.153Z,73.10
2018-05-06T04:33:00.538Z,72.60
2018-05-06T04:35:28.940Z,72.50
2018-05-06T04:37:57.309Z,72.50
2018-05-06T04:40:25.744Z,72.40
2018-05-06T04:42:54.127Z,72.00
2018-05-06T04:45:22.506Z,72.60
2018-05-06T04:47:50.969Z,71.30
2018-05-06T04:50:19.305Z,71.30
2018-05-06T04:52:47.750Z,71.20
2018-05-06T04:55:16.125Z,70.80
2018-05-06T04:57:44.686Z,70.40
2018-05-06T05:00:13.060Z,70.00
2018-05-06T05:02:41.432Z,69.60
2018-05-06T05:05:09.844Z,69.40
2018-05-06T05:07:38.213Z,69.10
2018-05-06T05:10:07.012Z,69.00
2018-05-06T05:12:35.384Z,68.40
2018-05-06T05:15:03.802Z,68.40
2018-05-06T05:17:32.184Z,68.40
2018-05-06T05:20:00.564Z,67.80
2018-05-06T05:22:30.473Z,66.80
2018-05-06T05:24:58.848Z,66.80
2018-05-06T05:27:27.245Z,66.40
2018-05-06T05:29:56.389Z,63.80
2018-05-06T05:32:24.964Z,63.70
2018-05-06T05:34:53.339Z,63.50
2018-05-06T05:37:21.713Z,63.10
2018-05-06T05:39:50.159Z,62.20
2018-05-06T05:42:19.297Z,62.30
2018-05-06T05:44:47.695Z,61.40
2018-05-06T05:47:16.079Z,61.20
2018-05-06T05:49:44.636Z,61.80
2018-05-06T05:52:13.191Z,62.10
2018-05-06T05:54:41.696Z,60.80
2018-05-06T05:57:10.097Z,60.60
2018-05-06T05:59:38.521Z,59.80
2018-05-06T06:02:07.690Z,58.60
2018-05-06T06:04:36.059Z,58.50
2018-05-06T06:07:04.480Z,58.10
2018-05-06T06:09:33.632Z,58.50
2018-05-06T06:12:02.015Z,58.50
2018-05-06T06:14:30.429Z,58.40
2018-05-06T06:16:59.576Z,57.20
2018-05-06T06:19:27.981Z,57.10
2018-05-06T06:21:56.357Z,56.40
2018-05-06T06:24:24.788Z,57.10
2018-05-06T06:26:53.164Z,57.20
2018-05-06T06:29:21.542Z,56.30
2018-05-06T06:31:49.944Z,56.40
2018-05-06T06:34:18.327Z,55.40
2018-05-06T06:36:46.729Z,55.70
2018-05-06T06:39:15.109Z,54.30
2018-05-06T06:41:43.857Z,53.90
2018-05-06T06:44:12.232Z,54.30
2018-05-06T06:46:40.609Z,53.00
2018-05-06T06:49:09.009Z,53.10
2018-05-06T06:51:37.386Z,52.00
2018-05-06T06:54:05.833Z,50.90
2018-05-06T06:56:34.217Z,50.00
2018-05-06T06:59:02.812Z,49.10
2018-05-06T07:01:31.192Z,48.50
2018-05-06T07:03:59.588Z,48.80
2018-05-06T07:06:28.009Z,47.90
2018-05-06T07:08:57.220Z,48.00
2018-05-06T07:11:25.644Z,47.40
2018-05-06T07:13:54.033Z,46.90
2018-05-06T07:16:22.629Z,47.00
2018-05-06T07:18:51.008Z,46.30
2018-05-06T07:21:19.389Z,45.80
2018-05-06T07:23:47.796Z,46.00
2018-05-06T07:26:16.176Z,45.00
2018-05-06T07:28:44.593Z,45.80
2018-05-06T07:31:12.981Z,44.40
2018-05-06T07:33:41.395Z,43.60
2018-05-06T07:36:10.547Z,42.40
2018-05-06T07:38:38.935Z,42.40
2018-05-06T07:41:07.351Z,42.60
2018-05-06T07:43:36.497Z,40.90
2018-05-06T07:46:04.889Z,40.80
2018-05-06T07:48:33.274Z,41.50
2018-05-06T07:51:02.039Z,41.00
2018-05-06T07:53:30.420Z,40.40
2018-05-06T07:55:58.792Z,39.30
2018-05-06T07:58:27.267Z,39.90
2018-05-06T08:00:55.667Z,39.60
2018-05-06T08:03:24.147Z,39.20
2018-05-06T08:05:53.330Z,38.50
2018-05-06T08:08:22.026Z,38.40
2018-05-06T08:10:50.484Z,37.20
2018-05-06T08:13:18.817Z,37.90
2018-05-06T08:15:47.990Z,37.60
2018-05-06T08:18:16.369Z,36.90
2018-05-06T08:20:44.777Z,37.20
2018-05-06T08:23:13.153Z,37.10
2018-05-06T08:25:42.611Z,37.20
2018-05-06T08:28:10.994Z,36.60
2018-05-06T08:30:39.382Z,36.10
2018-05-06T08:33:07.793Z,35.70
2018-05-06T08:35:36.937Z,36.50
2018-05-06T08:38:05.338Z,36.20
2018-05-06T08:40:33.730Z,35.80
2018-05-06T08:43:02.314Z,33.90
2018-05-06T08:45:30.778Z,34.20
2018-05-06T08:47:59.156Z,35.10
2018-05-06T08:50:27.565Z,33.50
2018-05-06T08:52:56.788Z,32.30
2018-05-06T08:55:25.224Z,32.20
2018-05-06T08:57:53.602Z,32.60
2018-05-06T09:00:22.071Z,31.80
2018-05-06T09:02:50.465Z,31.60
2018-05-06T09:05:18.833Z,30.80
2018-05-06T09:07:47.310Z,30.80
2018-05-06T09:10:15.688Z,30.80
2018-05-06T09:12:44.114Z,30.90
2018-05-06T09:15:13.265Z,30.00
2018-05-06T09:17:41.933Z,29.90
2018-05-06T09:20:10.297Z,30.00
2018-05-06T09:22:38.664Z,29.30
2018-05-06T09:25:07.825Z,29.10
2018-05-06T09:27:36.193Z,29.00
2018-05-06T09:30:04.596Z,29.20
2018-05-06T09:32:34.011Z,29.30
2018-05-06T09:35:03.216Z,28.20
2018-05-06T09:37:32.357Z,28.10
2018-05-06T09:40:00.730Z,28.10
2018-05-06T09:42:29.136Z,28.10
2018-05-06T09:44:57.515Z,28.30
2018-05-06T09:47:25.909Z,28.30
2018-05-06T09:49:55.072Z,27.60
2018-05-06T09:52:29.091Z,27.60
2018-05-06T09:55:13.251Z,27.30
2018-05-06T09:57:52.894Z,27.30
2018-05-06T10:00:21.764Z,27.40
2018-05-06T10:02:51.961Z,25.60
2018-05-06T10:05:22.479Z,26.40
2018-05-06T10:07:53.043Z,25.30
2018-05-06T10:10:23.561Z,25.30
2018-05-06T10:12:55.565Z,25.50
2018-05-06T10:15:25.948Z,24.80
2018-05-06T10:17:59.685Z,24.40
2018-05-06T10:20:31.933Z,24.40
2018-05-06T10:23:02.906Z,24.00
2018-05-06T10:25:34.466Z,24.50
2018-05-06T10:28:03.634Z,24.00
2018-05-06T10:30:34.943Z,24.40
2018-05-06T10:33:04.882Z,23.20
2018-05-06T10:35:35.088Z,23.50
2018-05-06T10:38:13.513Z,22.90
2018-05-06T10:40:42.360Z,23.50
2018-05-06T10:43:11.221Z,23.20
2018-05-06T10:45:45.122Z,23.10
2018-05-06T10:48:22.390Z,22.60
2018-05-06T10:50:50.968Z,21.80
2018-05-06T10:53:19.357Z,21.60
2018-05-06T10:55:47.760Z,22.20
2018-05-06T10:58:16.966Z,23.10
2018-05-06T11:00:46.148Z,21.90
2018-05-06T11:03:15.356Z,21.20
2018-05-06T11:05:44.518Z,20.40
2018-05-06T11:08:12.893Z,20.30
2018-05-06T11:10:41.463Z,20.40
2018-05-06T11:13:09.849Z,20.50
2018-05-06T11:15:38.275Z,20.70
2018-05-06T11:18:07.436Z,20.50
2018-05-06T11:20:36.479Z,20.50
2018-05-06T11:23:04.867Z,20.60
2018-05-06T11:25:33.240Z,20.50
2018-05-06T11:28:01.649Z,20.60
2018-05-06T11:30:30.028Z,20.20
2018-05-06T11:33:08.320Z,20.30
2018-05-06T11:35:41.036Z,20.20
2018-05-06T11:38:15.495Z,21.20
2018-05-06T11:40:47.776Z,21.00
2018-05-06T11:43:18.216Z,20.10
2018-05-06T11:45:46.920Z,19.20
2018-05-06T11:48:16.596Z,19.20
2018-05-06T11:50:45.012Z,19.20
2018-05-06T11:53:13.429Z,19.00
2018-05-06T11:55:42.225Z,19.00
2018-05-06T11:58:11.364Z,19.50
2018-05-06T12:00:39.794Z,19.50
2018-05-06T12:03:08.179Z,19.50
2018-05-06T12:05:37.600Z,19.60
2018-05-06T12:08:06.034Z,19.60
2018-05-06T12:10:34.499Z,19.60
2018-05-06T12:13:04.362Z,19.30
2018-05-06T12:15:33.522Z,19.20
2018-05-06T12:18:01.929Z,19.20
2018-05-06T12:20:31.591Z,18.90
2018-05-06T12:22:59.974Z,18.80
2018-05-06T12:25:29.402Z,18.70
2018-05-06T12:27:57.901Z,19.10
2018-05-06T12:30:27.133Z,19.40
2018-05-06T12:32:55.584Z,19.80
2018-05-06T12:35:24.260Z,19.30
2018-05-06T12:37:52.652Z,19.30
2018-05-06T12:40:21.828Z,19.30
2018-05-06T12:42:50.848Z,19.30
2018-05-06T12:45:20.211Z,19.60
2018-05-06T12:47:49.879Z,19.60
2018-05-06T12:50:19.038Z,19.80
2018-05-06T12:52:49.081Z,19.90
2018-05-06T12:55:18.183Z,19.90
2018-05-06T12:57:46.690Z,20.00
2018-05-06T13:00:16.011Z,20.60
2018-05-06T13:02:44.399Z,20.50
2018-05-06T13:05:12.797Z,19.70
2018-05-06T13:07:41.928Z,20.00
2018-05-06T13:10:10.475Z,19.90
2018-05-06T13:12:38.906Z,19.20
2018-05-06T13:15:07.305Z,18.10
2018-05-06T13:17:35.771Z,18.60
2018-05-06T13:20:04.968Z,18.90
2018-05-06T13:22:33.373Z,18.80
2018-05-06T13:25:01.750Z,19.30
2018-05-06T13:27:30.997Z,18.20
2018-05-06T13:30:00.073Z,18.50
2018-05-06T13:32:29.231Z,18.50
2018-05-06T13:34:57.641Z,18.50
2018-05-06T13:37:26.781Z,18.50
2018-05-06T13:39:55.184Z,18.50
2018-05-06T13:42:23.557Z,19.20
2018-05-06T13:44:51.957Z,18.40
2018-05-06T13:47:20.360Z,17.60
2018-05-06T13:49:48.824Z,17.60
2018-05-06T13:52:18.209Z,18.20
2018-05-06T13:54:48.091Z,17.90
2018-05-06T13:57:18.975Z,17.90
2018-05-06T13:59:47.377Z,18.70
2018-05-06T14:02:15.830Z,18.20
2018-05-06T14:04:44.601Z,17.70
2018-05-06T14:07:13.275Z,17.90
2018-05-06T14:09:43.589Z,18.40
2018-05-06T14:12:12.388Z,19.20
2018-05-06T14:14:41.113Z,18.70
2018-05-06T14:17:10.249Z,21.20
2018-05-06T14:19:39.988Z,21.20
2018-05-06T14:22:08.372Z,20.50
2018-05-06T14:24:38.272Z,22.00
2018-05-06T14:27:06.758Z,21.90
2018-05-06T14:29:35.861Z,22.90
2018-05-06T14:32:04.269Z,23.30
2018-05-06T14:34:33.538Z,22.80
2018-05-06T14:37:01.955Z,22.80
2018-05-06T14:39:31.116Z,23.00
2018-05-06T14:41:59.903Z,23.00
2018-05-06T14:44:29.176Z,23.20
2018-05-06T14:47:15.639Z,22.90
2018-05-06T14:49:44.982Z,22.40
2018-05-06T14:52:13.385Z,22.30
2018-05-06T14:54:41.949Z,23.20
2018-05-06T14:57:10.391Z,24.60
2018-05-06T14:59:38.788Z,24.10
2018-05-06T15:02:07.530Z,24.00
2018-05-06T15:04:36.352Z,22.30
2018-05-06T15:07:04.741Z,21.50
2018-05-06T15:09:33.109Z,21.80
2018-05-06T15:12:01.577Z,21.80
2018-05-06T15:14:38.248Z,21.50
2018-05-06T15:17:06.951Z,21.20
2018-05-06T15:19:35.527Z,22.10
2018-05-06T15:22:03.936Z,22.70
2018-05-06T15:24:32.317Z,22.30
2018-05-06T15:27:00.724Z,22.90
2018-05-06T15:29:32.049Z,24.20
2018-05-06T15:32:00.727Z,24.70
2018-05-06T15:34:29.100Z,24.80
2018-05-06T15:36:57.569Z,22.90
2018-05-06T15:39:26.326Z,24.10
2018-05-06T15:41:55.659Z,24.50
2018-05-06T15:44:24.151Z,24.50
2018-05-06T15:46:52.565Z,25.40
2018-05-06T15:49:21.106Z,25.00
2018-05-06T15:51:49.493Z,25.30
2018-05-06T15:54:17.860Z,25.40
2018-05-06T15:56:46.244Z,24.80
2018-05-06T15:59:14.615Z,25.50
2018-05-06T16:01:43.534Z,26.00
2018-05-06T16:04:16.836Z,25.70
2018-05-06T16:06:46.017Z,25.50
2018-05-06T16:09:14.397Z,25.50
2018-05-06T16:11:42.836Z,23.80
2018-05-06T16:14:11.204Z,24.00
2018-05-06T16:16:40.911Z,24.00
2018-05-06T16:19:09.321Z,23.90
2018-05-06T16:21:38.972Z,24.30
2018-05-06T16:24:07.505Z,24.20
2018-05-06T16:26:35.947Z,24.70
2018-05-06T16:29:05.387Z,25.20
2018-05-06T16:31:34.573Z,25.30
2018-05-06T16:34:03.136Z,25.70
2018-05-06T16:36:32.301Z,25.70
2018-05-06T16:39:00.676Z,25.60
2018-05-06T16:41:29.064Z,26.10
2018-05-06T16:43:57.442Z,26.00
2018-05-06T16:46:26.099Z,25.90
2018-05-06T16:48:54.498Z,25.60
2018-05-06T16:51:22.885Z,26.40
2018-05-06T16:53:52.057Z,27.80
2018-05-06T16:56:20.540Z,27.80
2018-05-06T16:58:48.950Z,26.80
2018-05-06T17:01:17.327Z,26.40
2018-05-06T17:03:46.713Z,27.30
2018-05-06T17:06:15.653Z,27.30
2018-05-06T17:08:44.024Z,27.60
2018-05-06T17:11:13.197Z,27.20
2018-05-06T17:13:41.566Z,27.20
2018-05-06T17:16:09.969Z,27.30
2018-05-06T17:18:39.149Z,27.90
2018-05-06T17:21:07.834Z,27.90
2018-05-06T17:23:37.034Z,28.70
2018-05-06T17:26:05.411Z,28.70
2018-05-06T17:28:33.809Z,28.80
2018-05-06T17:31:02.948Z,29.50
2018-05-06T17:33:31.359Z,29.50
2018-05-06T17:35:59.802Z,29.10
2018-05-06T17:38:28.381Z,29.10
2018-05-06T17:40:56.757Z,29.30
2018-05-06T17:43:25.125Z,29.70
2018-05-06T17:45:53.638Z,29.50
2018-05-06T17:48:23.102Z,30.00
2018-05-06T17:50:51.492Z,30.00
2018-05-06T17:53:19.871Z,30.00
2018-05-06T17:55:48.509Z,29.80
2018-05-06T17:58:16.935Z,29.90
2018-05-06T18:00:45.314Z,30.00
2018-05-06T18:03:13.713Z,30.10
2018-05-06T18:05:42.569Z,30.30
2018-05-06T18:08:10.969Z,30.30
2018-05-06T18:10:39.364Z,30.60
2018-05-06T18:13:21.722Z,30.70
2018-05-06T18:16:05.713Z,31.00
2018-05-06T18:18:53.876Z,31.50
2018-05-06T18:21:32.369Z,31.40
2018-05-06T18:24:01.072Z,31.90
2018-05-06T18:26:29.445Z,32.20
2018-05-06T18:28:58.358Z,32.80
2018-05-06T18:31:27.832Z,32.70
2018-05-06T18:33:58.954Z,32.90
2018-05-06T18:36:27.776Z,32.70
2018-05-06T18:38:56.867Z,33.20
2018-05-06T18:41:26.364Z,34.00
2018-05-06T18:43:55.753Z,35.10
2018-05-06T18:46:24.678Z,35.10
2018-05-06T18:48:53.841Z,35.40
2018-05-06T18:51:23.706Z,37.10
2018-05-06T18:53:53.285Z,36.80
2018-05-06T18:56:22.693Z,36.80
2018-05-06T18:58:54.142Z,37.40
2018-05-06T19:01:27.798Z,37.40
2018-05-06T19:03:57.817Z,37.90
2018-05-06T19:06:28.566Z,38.00
2018-05-06T19:08:59.748Z,39.00
2018-05-06T19:11:32.806Z,39.80
2018-05-06T19:14:04.233Z,39.70
2018-05-06T19:16:34.937Z,40.00
2018-05-06T19:19:05.131Z,40.90
2018-05-06T19:21:36.099Z,41.20
2018-05-06T19:24:05.767Z,42.10
2018-05-06T19:26:36.658Z,42.00
2018-05-06T19:29:05.957Z,42.00
2018-05-06T19:31:35.637Z,42.40
2018-05-06T19:34:05.392Z,42.30
2018-05-06T19:36:34.915Z,42.50
2018-05-06T19:39:07.366Z,42.90
2018-05-06T19:41:38.280Z,43.20
2018-05-06T19:44:08.033Z,42.90
2018-05-06T19:46:37.631Z,43.80
2018-05-06T19:49:07.009Z,43.80
2018-05-06T19:51:36.987Z,43.90
2018-05-06T19:54:07.903Z,44.00
2018-05-06T19:56:37.570Z,43.80
2018-05-06T19:59:07.936Z,43.90
2018-05-06T20:01:37.748Z,43.80
2018-05-06T20:04:08.215Z,44.40
2018-05-06T20:06:37.983Z,44.20
2018-05-06T20:09:07.372Z,44.30
2018-05-06T20:11:37.099Z,44.10
2018-05-06T20:14:07.403Z,45.50
2018-05-06T20:16:36.711Z,44.80
2018-05-06T20:19:07.838Z,44.70
2018-05-06T20:21:37.407Z,45.00
2018-05-06T20:24:07.153Z,44.80
2018-05-06T20:26:37.242Z,44.60
2018-05-06T20:29:08.851Z,44.90
2018-05-06T20:31:42.311Z,44.90
2018-05-06T20:34:13.737Z,45.00
2018-05-06T20:36:49.023Z,45.10
2018-05-06T20:39:22.392Z,45.10
2018-05-06T20:41:52.298Z,44.80
2018-05-06T20:44:20.717Z,44.60
2018-05-06T20:46:49.508Z,43.90
2018-05-06T20:49:17.903Z,44.10
2018-05-06T20:51:49.375Z,44.00
2018-05-06T20:54:20.864Z,44.70
2018-05-06T20:56:51.095Z,44.70
2018-05-06T20:59:19.522Z,43.90
2018-05-06T21:01:49.573Z,44.50
2018-05-06T21:04:19.161Z,44.90
2018-05-06T21:06:50.141Z,44.50
2018-05-06T21:09:21.720Z,45.40
2018-05-06T21:11:52.377Z,44.70
2018-05-06T21:14:23.853Z,44.00
2018-05-06T21:16:54.077Z,44.10
2018-05-06T21:19:22.911Z,44.00
2018-05-06T21:21:51.596Z,44.20
2018-05-06T21:24:20.362Z,44.50
2018-05-06T21:26:49.052Z,44.50
2018-05-06T21:29:17.692Z,44.50
2018-05-06T21:31:47.193Z,44.70
2018-05-06T21:34:16.797Z,44.70
2018-05-06T21:36:45.593Z,44.70
2018-05-06T21:39:14.174Z,44.60
2018-05-06T21:41:43.187Z,45.00
2018-05-06T21:44:12.099Z,45.00
2018-05-06T21:46:40.779Z,44.90
2018-05-06T21:49:09.614Z,44.80
2018-05-06T21:51:39.536Z,44.80
2018-05-06T21:54:08.939Z,44.90
2018-05-06T21:56:38.789Z,44.80
2018-05-06T21:59:07.648Z,44.80
2018-05-06T22:01:36.526Z,44.50
2018-05-06T22:04:05.181Z,44.60
2018-05-06T22:06:33.992Z,44.50
2018-05-06T22:09:02.709Z,44.60
2018-05-06T22:11:32.170Z,44.70
2018-05-06T22:14:00.833Z,44.70
2018-05-06T22:16:29.560Z,44.80
2018-05-06T22:18:58.426Z,44.80
2018-05-06T22:21:27.158Z,44.80
2018-05-06T22:23:56.541Z,45.40
2018-05-06T22:26:25.177Z,45.30
2018-05-06T22:28:54.575Z,45.60
2018-05-06T22:31:23.623Z,45.60
2018-05-06T22:33:52.369Z,45.60
2018-05-06T22:36:20.989Z,45.70
2018-05-06T22:38:50.604Z,45.90
2018-05-06T22:41:19.252Z,45.90
2018-05-06T22:43:47.982Z,45.80
2018-05-06T22:46:17.323Z,46.70
2018-05-06T22:48:46.395Z,46.00
2018-05-06T22:51:15.832Z,46.00
2018-05-06T22:53:44.550Z,46.00
2018-05-06T22:56:13.352Z,46.00
2018-05-06T22:58:41.999Z,46.20
2018-05-06T23:01:10.502Z,46.20
2018-05-06T23:03:39.231Z,46.20
2018-05-06T23:06:07.879Z,46.10
2018-05-06T23:08:36.695Z,45.90
2018-05-06T23:11:09.519Z,46.20
2018-05-06T23:13:38.092Z,46.20
2018-05-06T23:16:06.749Z,46.00
2018-05-06T23:18:36.327Z,46.00
2018-05-06T23:21:05.000Z,46.00
2018-05-06T23:23:33.727Z,46.00
2018-05-06T23:26:03.137Z,46.20
2018-05-06T23:28:31.990Z,46.10
2018-05-06T23:31:00.682Z,46.30
2018-05-06T23:33:30.974Z,46.40
2018-05-06T23:35:59.793Z,46.60
2018-05-06T23:38:28.453Z,46.60
2018-05-06T23:40:57.243Z,46.70
2018-05-06T23:43:25.980Z,46.70
2018-05-06T23:45:55.709Z,47.10
2018-05-06T23:48:25.335Z,47.00
2018-05-06T23:51:03.235Z,47.00
2018-05-06T23:53:46.740Z,47.10
2018-05-06T23:56:29.614Z,47.50
2018-05-06T23:59:16.174Z,47.70
